sensor_id;sensor_type;location;lat;lon;timestamp;temperature;humidity
72114;SHT31;59989;46.220;19.888;2023-03-01T00:02:49;2.81;90.12
72114;SHT31;59989;46.220;19.888;2023-03-01T00:05:51;2.81;90.12
72114;SHT31;59989;46.220;19.888;2023-03-01T00:08:54;2.83;90.21
72114;SHT31;59989;46.220;19.888;2023-03-01T00:11:56;2.83;90.08
72114;SHT31;59989;46.220;19.888;2023-03-01T00:14:59;2.80;90.12
72114;SHT31;59989;46.220;19.888;2023-03-01T00:18:01;2.83;90.16
72114;SHT31;59989;46.220;19.888;2023-03-01T00:21:04;2.80;90.12
72114;SHT31;59989;46.220;19.888;2023-03-01T00:24:08;2.78;89.99
72114;SHT31;59989;46.220;19.888;2023-03-01T00:27:11;2.80;90.12
72114;SHT31;59989;46.220;19.888;2023-03-01T00:30:15;2.78;90.01
72114;SHT31;59989;46.220;19.888;2023-03-01T00:33:18;2.80;90.08
72114;SHT31;59989;46.220;19.888;2023-03-01T00:36:20;2.80;90.12
72114;SHT31;59989;46.220;19.888;2023-03-01T00:39:23;2.80;90.11
72114;SHT31;59989;46.220;19.888;2023-03-01T00:42:25;2.80;90.16
72114;SHT31;59989;46.220;19.888;2023-03-01T00:45:28;2.81;90.25
72114;SHT31;59989;46.220;19.888;2023-03-01T00:48:32;2.80;90.26
72114;SHT31;59989;46.220;19.888;2023-03-01T00:51:34;2.81;90.25
72114;SHT31;59989;46.220;19.888;2023-03-01T00:54:37;2.83;90.16
72114;SHT31;59989;46.220;19.888;2023-03-01T00:57:39;2.81;90.06
72114;SHT31;59989;46.220;19.888;2023-03-01T01:00:45;2.78;90.11
72114;SHT31;59989;46.220;19.888;2023-03-01T01:04:03;2.78;90.14
72114;SHT31;59989;46.220;19.888;2023-03-01T01:07:05;2.77;89.88
72114;SHT31;59989;46.220;19.888;2023-03-01T01:10:09;2.78;89.95
72114;SHT31;59989;46.220;19.888;2023-03-01T01:13:16;2.81;89.97
72114;SHT31;59989;46.220;19.888;2023-03-01T01:16:20;2.80;89.95
72114;SHT31;59989;46.220;19.888;2023-03-01T01:19:24;2.81;89.96
72114;SHT31;59989;46.220;19.888;2023-03-01T01:22:27;2.83;89.93
72114;SHT31;59989;46.220;19.888;2023-03-01T01:25:29;2.87;89.90
72114;SHT31;59989;46.220;19.888;2023-03-01T01:28:32;2.84;89.77
72114;SHT31;59989;46.220;19.888;2023-03-01T01:31:36;2.83;89.76
72114;SHT31;59989;46.220;19.888;2023-03-01T01:34:39;2.85;89.82
72114;SHT31;59989;46.220;19.888;2023-03-01T01:37:41;2.81;89.66
72114;SHT31;59989;46.220;19.888;2023-03-01T01:40:45;2.84;89.70
72114;SHT31;59989;46.220;19.888;2023-03-01T01:44:09;2.85;89.50
72114;SHT31;59989;46.220;19.888;2023-03-01T01:47:20;2.90;89.48
72114;SHT31;59989;46.220;19.888;2023-03-01T01:50:26;2.88;89.45
72114;SHT31;59989;46.220;19.888;2023-03-01T01:53:29;2.88;89.39
72114;SHT31;59989;46.220;19.888;2023-03-01T01:56:32;2.90;89.34
72114;SHT31;59989;46.220;19.888;2023-03-01T01:59:35;2.91;89.22
72114;SHT31;59989;46.220;19.888;2023-03-01T02:02:40;2.94;89.21
72114;SHT31;59989;46.220;19.888;2023-03-01T02:09:25;2.94;89.05
72114;SHT31;59989;46.220;19.888;2023-03-01T02:12:27;2.94;89.10
72114;SHT31;59989;46.220;19.888;2023-03-01T02:15:35;2.94;89.12
72114;SHT31;59989;46.220;19.888;2023-03-01T02:18:40;2.98;89.12
72114;SHT31;59989;46.220;19.888;2023-03-01T02:22:43;2.97;88.94
72114;SHT31;59989;46.220;19.888;2023-03-01T02:28:46;2.95;89.01
72114;SHT31;59989;46.220;19.888;2023-03-01T02:31:51;2.97;88.97
72114;SHT31;59989;46.220;19.888;2023-03-01T02:34:55;2.98;89.04
72114;SHT31;59989;46.220;19.888;2023-03-01T02:38:00;2.99;88.81
72114;SHT31;59989;46.220;19.888;2023-03-01T02:41:06;3.02;88.76
72114;SHT31;59989;46.220;19.888;2023-03-01T02:44:09;3.04;88.83
72114;SHT31;59989;46.220;19.888;2023-03-01T02:47:11;3.05;88.65
72114;SHT31;59989;46.220;19.888;2023-03-01T02:56:56;3.13;88.52
72114;SHT31;59989;46.220;19.888;2023-03-01T03:00:03;3.15;88.39
72114;SHT31;59989;46.220;19.888;2023-03-01T03:03:14;3.15;88.29
72114;SHT31;59989;46.220;19.888;2023-03-01T03:06:17;3.15;88.03
72114;SHT31;59989;46.220;19.888;2023-03-01T03:09:20;3.18;87.95
72114;SHT31;59989;46.220;19.888;2023-03-01T03:12:22;3.18;87.77
72114;SHT31;59989;46.220;19.888;2023-03-01T03:15:26;3.16;87.59
72114;SHT31;59989;46.220;19.888;2023-03-01T03:18:30;3.16;87.53
72114;SHT31;59989;46.220;19.888;2023-03-01T03:21:33;3.18;87.73
72114;SHT31;59989;46.220;19.888;2023-03-01T03:24:35;3.18;87.79
72114;SHT31;59989;46.220;19.888;2023-03-01T03:27:41;3.15;87.53
72114;SHT31;59989;46.220;19.888;2023-03-01T03:30:46;3.16;87.69
72114;SHT31;59989;46.220;19.888;2023-03-01T03:33:49;3.15;87.69
72114;SHT31;59989;46.220;19.888;2023-03-01T03:36:55;3.15;87.83
72114;SHT31;59989;46.220;19.888;2023-03-01T03:39:58;3.13;87.96
72114;SHT31;59989;46.220;19.888;2023-03-01T03:43:05;3.15;87.88
72114;SHT31;59989;46.220;19.888;2023-03-01T03:46:08;3.12;87.89
72114;SHT31;59989;46.220;19.888;2023-03-01T03:49:11;3.13;88.00
72114;SHT31;59989;46.220;19.888;2023-03-01T03:52:14;3.15;88.04
72114;SHT31;59989;46.220;19.888;2023-03-01T03:55:16;3.18;88.29
72114;SHT31;59989;46.220;19.888;2023-03-01T03:58:23;3.20;88.06
72114;SHT31;59989;46.220;19.888;2023-03-01T04:01:25;3.16;88.11
72114;SHT31;59989;46.220;19.888;2023-03-01T04:04:28;3.16;88.05
72114;SHT31;59989;46.220;19.888;2023-03-01T04:07:31;3.19;88.04
72114;SHT31;59989;46.220;19.888;2023-03-01T04:10:36;3.18;87.95
72114;SHT31;59989;46.220;19.888;2023-03-01T04:13:39;3.16;87.92
72114;SHT31;59989;46.220;19.888;2023-03-01T04:16:42;3.13;87.89
72114;SHT31;59989;46.220;19.888;2023-03-01T04:19:44;3.12;88.05
72114;SHT31;59989;46.220;19.888;2023-03-01T04:23:15;3.16;88.17
72114;SHT31;59989;46.220;19.888;2023-03-01T04:26:21;3.16;88.11
72114;SHT31;59989;46.220;19.888;2023-03-01T04:29:23;3.18;88.31
72114;SHT31;59989;46.220;19.888;2023-03-01T04:32:26;3.18;88.30
72114;SHT31;59989;46.220;19.888;2023-03-01T04:35:29;3.20;88.29
72114;SHT31;59989;46.220;19.888;2023-03-01T04:38:32;3.26;88.18
72114;SHT31;59989;46.220;19.888;2023-03-01T04:41:35;3.26;88.32
72114;SHT31;59989;46.220;19.888;2023-03-01T04:44:38;3.22;88.12
72114;SHT31;59989;46.220;19.888;2023-03-01T04:47:42;3.18;88.14
72114;SHT31;59989;46.220;19.888;2023-03-01T04:50:46;3.18;88.18
72114;SHT31;59989;46.220;19.888;2023-03-01T04:53:48;3.19;88.29
72114;SHT31;59989;46.220;19.888;2023-03-01T04:56:51;3.15;88.36
72114;SHT31;59989;46.220;19.888;2023-03-01T04:59:53;3.18;88.35
72114;SHT31;59989;46.220;19.888;2023-03-01T05:03:00;3.16;88.32
72114;SHT31;59989;46.220;19.888;2023-03-01T05:06:03;3.20;88.33
72114;SHT31;59989;46.220;19.888;2023-03-01T05:09:05;3.22;88.19
72114;SHT31;59989;46.220;19.888;2023-03-01T05:12:08;3.23;88.11
72114;SHT31;59989;46.220;19.888;2023-03-01T05:15:12;3.20;88.16
72114;SHT31;59989;46.220;19.888;2023-03-01T05:18:14;3.20;88.26
72114;SHT31;59989;46.220;19.888;2023-03-01T05:21:17;3.20;88.16
72114;SHT31;59989;46.220;19.888;2023-03-01T05:24:19;3.20;88.21
72114;SHT31;59989;46.220;19.888;2023-03-01T05:27:22;3.18;88.34
72114;SHT31;59989;46.220;19.888;2023-03-01T05:30:24;3.20;88.47
72114;SHT31;59989;46.220;19.888;2023-03-01T05:33:27;3.18;88.47
72114;SHT31;59989;46.220;19.888;2023-03-01T05:36:30;3.16;88.45
72114;SHT31;59989;46.220;19.888;2023-03-01T05:39:33;3.22;88.42
72114;SHT31;59989;46.220;19.888;2023-03-01T05:42:35;3.23;88.47
72114;SHT31;59989;46.220;19.888;2023-03-01T05:45:39;3.22;88.28
72114;SHT31;59989;46.220;19.888;2023-03-01T05:48:42;3.23;88.51
72114;SHT31;59989;46.220;19.888;2023-03-01T05:51:51;3.26;88.35
72114;SHT31;59989;46.220;19.888;2023-03-01T05:54:53;3.26;88.30
72114;SHT31;59989;46.220;19.888;2023-03-01T05:58:05;3.30;88.22
72114;SHT31;59989;46.220;19.888;2023-03-01T06:01:11;3.33;87.88
72114;SHT31;59989;46.220;19.888;2023-03-01T06:04:15;3.33;88.18
72114;SHT31;59989;46.220;19.888;2023-03-01T06:07:18;3.36;88.05
72114;SHT31;59989;46.220;19.888;2023-03-01T06:10:22;3.40;87.83
72114;SHT31;59989;46.220;19.888;2023-03-01T06:13:24;3.43;87.95
72114;SHT31;59989;46.220;19.888;2023-03-01T06:16:27;3.46;88.04
72114;SHT31;59989;46.220;19.888;2023-03-01T06:19:30;3.49;87.82
72114;SHT31;59989;46.220;19.888;2023-03-01T06:22:32;3.49;87.75
72114;SHT31;59989;46.220;19.888;2023-03-01T06:25:35;3.50;87.95
72114;SHT31;59989;46.220;19.888;2023-03-01T06:28:38;3.53;87.97
72114;SHT31;59989;46.220;19.888;2023-03-01T06:31:40;3.53;88.04
72114;SHT31;59989;46.220;19.888;2023-03-01T06:34:43;3.57;87.96
72114;SHT31;59989;46.220;19.888;2023-03-01T06:37:47;3.57;88.00
72114;SHT31;59989;46.220;19.888;2023-03-01T06:40:54;3.64;87.97
72114;SHT31;59989;46.220;19.888;2023-03-01T06:43:58;3.64;87.96
72114;SHT31;59989;46.220;19.888;2023-03-01T06:47:01;3.70;88.00
72114;SHT31;59989;46.220;19.888;2023-03-01T06:50:04;3.76;88.01
72114;SHT31;59989;46.220;19.888;2023-03-01T06:53:08;3.83;88.03
72114;SHT31;59989;46.220;19.888;2023-03-01T06:56:11;3.86;87.81
72114;SHT31;59989;46.220;19.888;2023-03-01T06:59:13;3.94;87.73
72114;SHT31;59989;46.220;19.888;2023-03-01T07:02:16;3.99;87.64
72114;SHT31;59989;46.220;19.888;2023-03-01T07:05:19;3.97;87.37
72114;SHT31;59989;46.220;19.888;2023-03-01T07:08:22;4.01;87.39
72114;SHT31;59989;46.220;19.888;2023-03-01T07:11:25;4.08;87.47
72114;SHT31;59989;46.220;19.888;2023-03-01T07:14:28;4.07;87.07
72114;SHT31;59989;46.220;19.888;2023-03-01T07:17:31;4.11;86.82
72114;SHT31;59989;46.220;19.888;2023-03-01T07:20:34;4.17;86.78
72114;SHT31;59989;46.220;19.888;2023-03-01T07:23:37;4.19;86.76
72114;SHT31;59989;46.220;19.888;2023-03-01T07:26:40;4.26;86.74
72114;SHT31;59989;46.220;19.888;2023-03-01T07:29:42;4.31;86.05
72114;SHT31;59989;46.220;19.888;2023-03-01T07:32:45;4.42;85.71
72114;SHT31;59989;46.220;19.888;2023-03-01T07:35:48;4.57;85.67
72114;SHT31;59989;46.220;19.888;2023-03-01T07:38:50;4.66;85.20
72114;SHT31;59989;46.220;19.888;2023-03-01T07:41:53;4.72;85.05
72114;SHT31;59989;46.220;19.888;2023-03-01T07:44:57;4.77;84.69
72114;SHT31;59989;46.220;19.888;2023-03-01T07:47:59;4.79;84.53
72114;SHT31;59989;46.220;19.888;2023-03-01T07:51:04;4.79;83.91
72114;SHT31;59989;46.220;19.888;2023-03-01T07:54:07;4.93;83.93
72114;SHT31;59989;46.220;19.888;2023-03-01T07:57:10;4.90;83.58
72114;SHT31;59989;46.220;19.888;2023-03-01T08:00:13;4.95;83.81
72114;SHT31;59989;46.220;19.888;2023-03-01T08:03:21;5.03;83.31
72114;SHT31;59989;46.220;19.888;2023-03-01T08:06:23;5.04;83.12
72114;SHT31;59989;46.220;19.888;2023-03-01T08:09:26;5.01;82.82
72114;SHT31;59989;46.220;19.888;2023-03-01T08:12:28;4.94;82.95
72114;SHT31;59989;46.220;19.888;2023-03-01T08:15:31;5.08;82.60
72114;SHT31;59989;46.220;19.888;2023-03-01T08:18:33;5.01;82.92
72114;SHT31;59989;46.220;19.888;2023-03-01T08:21:36;5.07;83.36
72114;SHT31;59989;46.220;19.888;2023-03-01T08:24:39;5.01;82.91
72114;SHT31;59989;46.220;19.888;2023-03-01T08:27:41;5.01;83.25
72114;SHT31;59989;46.220;19.888;2023-03-01T08:30:45;5.03;83.15
72114;SHT31;59989;46.220;19.888;2023-03-01T08:33:50;4.87;82.88
72114;SHT31;59989;46.220;19.888;2023-03-01T08:36:57;4.83;83.59
72114;SHT31;59989;46.220;19.888;2023-03-01T08:40:00;4.81;83.41
72114;SHT31;59989;46.220;19.888;2023-03-01T08:43:03;4.79;83.64
72114;SHT31;59989;46.220;19.888;2023-03-01T08:46:05;4.83;83.43
72114;SHT31;59989;46.220;19.888;2023-03-01T08:49:12;4.90;83.39
72114;SHT31;59989;46.220;19.888;2023-03-01T08:52:15;4.87;83.55
72114;SHT31;59989;46.220;19.888;2023-03-01T08:55:18;4.93;83.79
72114;SHT31;59989;46.220;19.888;2023-03-01T08:58:20;5.05;84.19
72114;SHT31;59989;46.220;19.888;2023-03-01T09:01:24;5.13;83.43
72114;SHT31;59989;46.220;19.888;2023-03-01T09:04:26;5.15;83.34
72114;SHT31;59989;46.220;19.888;2023-03-01T09:07:29;5.24;83.51
72114;SHT31;59989;46.220;19.888;2023-03-01T09:10:31;5.18;83.19
72114;SHT31;59989;46.220;19.888;2023-03-01T09:13:34;5.15;83.21
72114;SHT31;59989;46.220;19.888;2023-03-01T09:16:37;5.25;82.90
72114;SHT31;59989;46.220;19.888;2023-03-01T09:19:39;5.34;83.10
72114;SHT31;59989;46.220;19.888;2023-03-01T09:22:42;5.38;82.60
72114;SHT31;59989;46.220;19.888;2023-03-01T09:25:44;5.45;82.72
72114;SHT31;59989;46.220;19.888;2023-03-01T09:28:48;5.58;82.66
72114;SHT31;59989;46.220;19.888;2023-03-01T09:31:52;5.63;81.74
72114;SHT31;59989;46.220;19.888;2023-03-01T09:34:59;5.89;81.49
72114;SHT31;59989;46.220;19.888;2023-03-01T09:38:08;5.92;81.08
72114;SHT31;59989;46.220;19.888;2023-03-01T09:44:40;5.85;80.35
72114;SHT31;59989;46.220;19.888;2023-03-01T09:47:44;5.90;80.70
72114;SHT31;59989;46.220;19.888;2023-03-01T09:50:49;5.97;81.07
72114;SHT31;59989;46.220;19.888;2023-03-01T09:53:52;5.86;80.23
72114;SHT31;59989;46.220;19.888;2023-03-01T09:57:06;5.90;80.47
72114;SHT31;59989;46.220;19.888;2023-03-01T10:00:26;6.10;81.39
72114;SHT31;59989;46.220;19.888;2023-03-01T10:03:40;6.35;80.60
72114;SHT31;59989;46.220;19.888;2023-03-01T10:10:22;6.27;80.04
72114;SHT31;59989;46.220;19.888;2023-03-01T10:14:01;6.28;79.99
72114;SHT31;59989;46.220;19.888;2023-03-01T10:17:27;6.35;80.39
72114;SHT31;59989;46.220;19.888;2023-03-01T10:21:21;6.41;79.79
72114;SHT31;59989;46.220;19.888;2023-03-01T10:24:19;6.67;79.55
72114;SHT31;59989;46.220;19.888;2023-03-01T10:27:39;6.73;78.96
72114;SHT31;59989;46.220;19.888;2023-03-01T10:30:46;6.88;79.21
72114;SHT31;59989;46.220;19.888;2023-03-01T10:33:49;6.85;78.94
72114;SHT31;59989;46.220;19.888;2023-03-01T10:37:16;6.86;79.08
72114;SHT31;59989;46.220;19.888;2023-03-01T10:40:24;7.10;78.49
72114;SHT31;59989;46.220;19.888;2023-03-01T10:43:50;7.17;79.00
72114;SHT31;59989;46.220;19.888;2023-03-01T10:46:59;7.41;78.36
72114;SHT31;59989;46.220;19.888;2023-03-01T10:50:05;7.35;77.75
72114;SHT31;59989;46.220;19.888;2023-03-01T10:53:27;7.51;78.03
72114;SHT31;59989;46.220;19.888;2023-03-01T10:56:46;7.43;77.48
72114;SHT31;59989;46.220;19.888;2023-03-01T11:00:01;7.47;77.68
72114;SHT31;59989;46.220;19.888;2023-03-01T11:03:15;7.64;76.91
72114;SHT31;59989;46.220;19.888;2023-03-01T11:06:21;7.65;77.50
72114;SHT31;59989;46.220;19.888;2023-03-01T11:09:24;7.58;77.41
72114;SHT31;59989;46.220;19.888;2023-03-01T11:12:29;7.71;77.42
72114;SHT31;59989;46.220;19.888;2023-03-01T11:15:32;7.98;77.28
72114;SHT31;59989;46.220;19.888;2023-03-01T11:18:34;7.88;76.41
72114;SHT31;59989;46.220;19.888;2023-03-01T11:21:59;8.09;76.47
72114;SHT31;59989;46.220;19.888;2023-03-01T11:25:04;8.32;76.34
72114;SHT31;59989;46.220;19.888;2023-03-01T11:28:15;8.46;75.26
72114;SHT31;59989;46.220;19.888;2023-03-01T11:31:20;8.60;75.29
72114;SHT31;59989;46.220;19.888;2023-03-01T11:34:38;8.69;74.91
72114;SHT31;59989;46.220;19.888;2023-03-01T11:41:16;9.15;73.85
72114;SHT31;59989;46.220;19.888;2023-03-01T11:44:24;9.23;73.70
72114;SHT31;59989;46.220;19.888;2023-03-01T11:50:46;9.69;72.14
72114;SHT31;59989;46.220;19.888;2023-03-01T11:53:59;10.09;70.57
72114;SHT31;59989;46.220;19.888;2023-03-01T11:57:11;9.87;71.56
72114;SHT31;59989;46.220;19.888;2023-03-01T12:30:50;13.30;60.25
72114;SHT31;59989;46.220;19.888;2023-03-01T12:37:14;13.07;59.92
72114;SHT31;59989;46.220;19.888;2023-03-01T12:47:26;14.19;58.73
72114;SHT31;59989;46.220;19.888;2023-03-01T12:50:42;14.39;57.46
72114;SHT31;59989;46.220;19.888;2023-03-01T12:53:51;12.12;63.25
72114;SHT31;59989;46.220;19.888;2023-03-01T12:57:05;12.56;63.10
72114;SHT31;59989;46.220;19.888;2023-03-01T13:00:28;12.83;62.47
72114;SHT31;59989;46.220;19.888;2023-03-01T13:10:29;12.52;62.96
72114;SHT31;59989;46.220;19.888;2023-03-01T13:13:35;13.71;59.48
72114;SHT31;59989;46.220;19.888;2023-03-01T13:16:42;13.06;61.00
72114;SHT31;59989;46.220;19.888;2023-03-01T13:19:56;14.47;57.71
72114;SHT31;59989;46.220;19.888;2023-03-01T13:23:11;12.61;62.92
72114;SHT31;59989;46.220;19.888;2023-03-01T13:26:16;11.66;65.72
72114;SHT31;59989;46.220;19.888;2023-03-01T13:29:26;11.90;65.65
72114;SHT31;59989;46.220;19.888;2023-03-01T13:32:36;13.03;61.43
72114;SHT31;59989;46.220;19.888;2023-03-01T13:35:46;12.31;63.92
72114;SHT31;59989;46.220;19.888;2023-03-01T13:41:59;11.40;66.87
72114;SHT31;59989;46.220;19.888;2023-03-01T13:45:05;11.11;67.67
72114;SHT31;59989;46.220;19.888;2023-03-01T13:48:22;11.10;67.48
72114;SHT31;59989;46.220;19.888;2023-03-01T13:51:27;11.03;67.85
72114;SHT31;59989;46.220;19.888;2023-03-01T13:54:32;11.17;68.21
72114;SHT31;59989;46.220;19.888;2023-03-01T13:57:37;11.12;68.00
72114;SHT31;59989;46.220;19.888;2023-03-01T14:00:42;10.76;68.60
72114;SHT31;59989;46.220;19.888;2023-03-01T14:03:44;10.83;69.25
72114;SHT31;59989;46.220;19.888;2023-03-01T14:06:47;11.19;68.89
72114;SHT31;59989;46.220;19.888;2023-03-01T14:09:56;11.21;68.48
72114;SHT31;59989;46.220;19.888;2023-03-01T14:19:57;11.06;68.28
72114;SHT31;59989;46.220;19.888;2023-03-01T14:23:02;11.24;68.65
72114;SHT31;59989;46.220;19.888;2023-03-01T14:26:10;11.01;69.08
72114;SHT31;59989;46.220;19.888;2023-03-01T14:29:44;10.81;69.25
72114;SHT31;59989;46.220;19.888;2023-03-01T14:33:02;10.77;69.71
72114;SHT31;59989;46.220;19.888;2023-03-01T14:36:08;10.87;69.99
72114;SHT31;59989;46.220;19.888;2023-03-01T14:39:27;10.88;69.90
72114;SHT31;59989;46.220;19.888;2023-03-01T14:42:35;10.96;69.02
72114;SHT31;59989;46.220;19.888;2023-03-01T14:45:38;10.96;69.56
72114;SHT31;59989;46.220;19.888;2023-03-01T14:48:41;10.79;69.48
72114;SHT31;59989;46.220;19.888;2023-03-01T14:51:52;10.70;69.91
72114;SHT31;59989;46.220;19.888;2023-03-01T14:54:55;10.50;70.61
72114;SHT31;59989;46.220;19.888;2023-03-01T14:57:58;10.48;71.11
72114;SHT31;59989;46.220;19.888;2023-03-01T15:01:05;10.48;70.93
72114;SHT31;59989;46.220;19.888;2023-03-01T15:04:11;10.49;71.36
72114;SHT31;59989;46.220;19.888;2023-03-01T15:07:14;10.43;71.04
72114;SHT31;59989;46.220;19.888;2023-03-01T15:10:23;10.55;70.46
72114;SHT31;59989;46.220;19.888;2023-03-01T15:13:31;10.70;69.90
72114;SHT31;59989;46.220;19.888;2023-03-01T15:16:38;10.77;69.35
72114;SHT31;59989;46.220;19.888;2023-03-01T15:19:45;10.80;69.34
72114;SHT31;59989;46.220;19.888;2023-03-01T15:22:48;10.79;69.73
72114;SHT31;59989;46.220;19.888;2023-03-01T15:25:53;10.74;70.27
72114;SHT31;59989;46.220;19.888;2023-03-01T15:29:00;10.59;69.73
72114;SHT31;59989;46.220;19.888;2023-03-01T15:32:24;10.57;70.03
72114;SHT31;59989;46.220;19.888;2023-03-01T15:35:44;10.42;70.37
72114;SHT31;59989;46.220;19.888;2023-03-01T15:38:53;10.33;70.79
72114;SHT31;59989;46.220;19.888;2023-03-01T15:41:56;10.31;71.04
72114;SHT31;59989;46.220;19.888;2023-03-01T15:45:10;10.18;71.74
72114;SHT31;59989;46.220;19.888;2023-03-01T15:48:17;10.15;71.90
72114;SHT31;59989;46.220;19.888;2023-03-01T15:51:30;10.11;72.21
72114;SHT31;59989;46.220;19.888;2023-03-01T15:54:33;10.01;73.06
72114;SHT31;59989;46.220;19.888;2023-03-01T15:57:36;9.84;73.82
72114;SHT31;59989;46.220;19.888;2023-03-01T16:00:43;9.64;74.70
72114;SHT31;59989;46.220;19.888;2023-03-01T16:04:01;9.53;74.71
72114;SHT31;59989;46.220;19.888;2023-03-01T16:07:05;9.34;74.87
72114;SHT31;59989;46.220;19.888;2023-03-01T16:10:09;9.22;75.21
72114;SHT31;59989;46.220;19.888;2023-03-01T16:13:16;9.06;75.54
72114;SHT31;59989;46.220;19.888;2023-03-01T16:16:20;8.89;76.34
72114;SHT31;59989;46.220;19.888;2023-03-01T16:19:23;8.67;77.20
72114;SHT31;59989;46.220;19.888;2023-03-01T16:22:26;8.41;77.46
72114;SHT31;59989;46.220;19.888;2023-03-01T16:25:30;8.22;77.87
72114;SHT31;59989;46.220;19.888;2023-03-01T16:28:34;8.06;78.46
72114;SHT31;59989;46.220;19.888;2023-03-01T16:31:37;7.93;78.81
72114;SHT31;59989;46.220;19.888;2023-03-01T16:34:40;7.74;79.16
72114;SHT31;59989;46.220;19.888;2023-03-01T16:37:43;7.62;79.77
72114;SHT31;59989;46.220;19.888;2023-03-01T16:40:49;7.52;79.99
72114;SHT31;59989;46.220;19.888;2023-03-01T16:43:51;7.38;80.49
72114;SHT31;59989;46.220;19.888;2023-03-01T16:46:54;7.23;81.10
72114;SHT31;59989;46.220;19.888;2023-03-01T16:49:57;7.09;81.57
72114;SHT31;59989;46.220;19.888;2023-03-01T16:53:00;6.96;82.26
72114;SHT31;59989;46.220;19.888;2023-03-01T16:56:04;6.80;82.66
72114;SHT31;59989;46.220;19.888;2023-03-01T16:59:07;6.72;83.22
72114;SHT31;59989;46.220;19.888;2023-03-01T17:02:11;6.65;83.15
72114;SHT31;59989;46.220;19.888;2023-03-01T17:05:14;6.67;83.31
72114;SHT31;59989;46.220;19.888;2023-03-01T17:08:17;6.72;83.63
72114;SHT31;59989;46.220;19.888;2023-03-01T17:11:21;6.65;83.77
72114;SHT31;59989;46.220;19.888;2023-03-01T17:14:23;6.53;83.78
72114;SHT31;59989;46.220;19.888;2023-03-01T17:17:26;6.38;84.36
72114;SHT31;59989;46.220;19.888;2023-03-01T17:20:30;6.40;84.64
72114;SHT31;59989;46.220;19.888;2023-03-01T17:23:34;6.34;84.47
72114;SHT31;59989;46.220;19.888;2023-03-01T17:26:37;6.21;84.59
72114;SHT31;59989;46.220;19.888;2023-03-01T17:29:40;6.18;84.96
72114;SHT31;59989;46.220;19.888;2023-03-01T17:32:43;6.13;85.04
72114;SHT31;59989;46.220;19.888;2023-03-01T17:35:46;6.01;85.13
72114;SHT31;59989;46.220;19.888;2023-03-01T17:38:49;5.94;85.28
72114;SHT31;59989;46.220;19.888;2023-03-01T17:41:53;5.94;85.24
72114;SHT31;59989;46.220;19.888;2023-03-01T17:44:56;5.79;85.27
72114;SHT31;59989;46.220;19.888;2023-03-01T17:47:59;5.69;85.62
72114;SHT31;59989;46.220;19.888;2023-03-01T17:51:10;5.62;85.84
72114;SHT31;59989;46.220;19.888;2023-03-01T17:54:13;5.51;86.06
72114;SHT31;59989;46.220;19.888;2023-03-01T17:57:15;5.48;86.26
72114;SHT31;59989;46.220;19.888;2023-03-01T18:00:18;5.74;86.25
72114;SHT31;59989;46.220;19.888;2023-03-01T18:03:21;5.70;85.76
72114;SHT31;59989;46.220;19.888;2023-03-01T18:06:26;5.65;85.84
72114;SHT31;59989;46.220;19.888;2023-03-01T18:09:29;5.55;85.71
72114;SHT31;59989;46.220;19.888;2023-03-01T18:12:33;5.42;85.86
72114;SHT31;59989;46.220;19.888;2023-03-01T18:15:36;5.28;85.98
72114;SHT31;59989;46.220;19.888;2023-03-01T18:18:39;5.27;86.14
72114;SHT31;59989;46.220;19.888;2023-03-01T18:21:41;5.18;86.14
72114;SHT31;59989;46.220;19.888;2023-03-01T18:24:45;5.18;86.47
72114;SHT31;59989;46.220;19.888;2023-03-01T18:27:48;5.21;86.40
72114;SHT31;59989;46.220;19.888;2023-03-01T18:30:58;5.34;86.46
72114;SHT31;59989;46.220;19.888;2023-03-01T18:34:02;5.41;86.23
72114;SHT31;59989;46.220;19.888;2023-03-01T18:37:05;5.49;86.09
72114;SHT31;59989;46.220;19.888;2023-03-01T18:40:11;5.60;85.75
72114;SHT31;59989;46.220;19.888;2023-03-01T18:43:16;5.70;85.28
72114;SHT31;59989;46.220;19.888;2023-03-01T18:46:19;5.77;85.15
72114;SHT31;59989;46.220;19.888;2023-03-01T18:49:21;5.83;84.71
72114;SHT31;59989;46.220;19.888;2023-03-01T18:52:25;5.92;84.50
72114;SHT31;59989;46.220;19.888;2023-03-01T18:55:28;5.99;84.03
72114;SHT31;59989;46.220;19.888;2023-03-01T18:58:31;6.18;83.82
72114;SHT31;59989;46.220;19.888;2023-03-01T19:01:33;6.30;82.67
72114;SHT31;59989;46.220;19.888;2023-03-01T19:04:39;6.41;82.21
72114;SHT31;59989;46.220;19.888;2023-03-01T19:07:43;6.48;81.59
72114;SHT31;59989;46.220;19.888;2023-03-01T19:11:03;6.48;81.74
72114;SHT31;59989;46.220;19.888;2023-03-01T19:14:06;6.41;81.66
72114;SHT31;59989;46.220;19.888;2023-03-01T19:17:10;6.34;82.04
72114;SHT31;59989;46.220;19.888;2023-03-01T19:20:12;6.35;81.80
72114;SHT31;59989;46.220;19.888;2023-03-01T19:23:17;6.37;81.65
72114;SHT31;59989;46.220;19.888;2023-03-01T19:26:22;6.38;81.45
72114;SHT31;59989;46.220;19.888;2023-03-01T19:29:25;6.38;81.23
72114;SHT31;59989;46.220;19.888;2023-03-01T19:32:29;6.38;81.01
72114;SHT31;59989;46.220;19.888;2023-03-01T19:35:34;6.40;80.52
72114;SHT31;59989;46.220;19.888;2023-03-01T19:38:38;6.41;80.46
72114;SHT31;59989;46.220;19.888;2023-03-01T19:41:42;6.32;80.41
72114;SHT31;59989;46.220;19.888;2023-03-01T19:44:45;6.25;80.39
72114;SHT31;59989;46.220;19.888;2023-03-01T19:47:48;6.16;80.52
72114;SHT31;59989;46.220;19.888;2023-03-01T19:50:53;6.01;80.87
72114;SHT31;59989;46.220;19.888;2023-03-01T19:53:55;5.87;81.38
72114;SHT31;59989;46.220;19.888;2023-03-01T19:56:59;5.76;81.72
72114;SHT31;59989;46.220;19.888;2023-03-01T20:00:02;5.63;82.07
72114;SHT31;59989;46.220;19.888;2023-03-01T20:03:16;5.55;81.45
72114;SHT31;59989;46.220;19.888;2023-03-01T20:06:20;5.51;81.64
72114;SHT31;59989;46.220;19.888;2023-03-01T20:09:23;5.44;81.76
72114;SHT31;59989;46.220;19.888;2023-03-01T20:12:25;5.41;81.21
72114;SHT31;59989;46.220;19.888;2023-03-01T20:15:28;5.31;81.51
72114;SHT31;59989;46.220;19.888;2023-03-01T20:18:31;5.25;81.22
72114;SHT31;59989;46.220;19.888;2023-03-01T20:21:34;5.13;81.38
72114;SHT31;59989;46.220;19.888;2023-03-01T20:24:38;5.03;81.28
72114;SHT31;59989;46.220;19.888;2023-03-01T20:27:41;4.95;81.35
72114;SHT31;59989;46.220;19.888;2023-03-01T20:30:49;4.86;81.98
72114;SHT31;59989;46.220;19.888;2023-03-01T20:33:54;4.91;82.19
72114;SHT31;59989;46.220;19.888;2023-03-01T20:36:57;5.00;81.53
72114;SHT31;59989;46.220;19.888;2023-03-01T20:40:00;5.04;81.10
72114;SHT31;59989;46.220;19.888;2023-03-01T20:43:03;5.08;80.98
72114;SHT31;59989;46.220;19.888;2023-03-01T20:46:09;5.08;80.62
72114;SHT31;59989;46.220;19.888;2023-03-01T20:49:15;5.05;80.51
72114;SHT31;59989;46.220;19.888;2023-03-01T20:52:17;5.00;80.89
72114;SHT31;59989;46.220;19.888;2023-03-01T20:55:20;4.93;80.65